ニューヨーク/JFK の空港の天気 - METARとTAF

ジョン・F・ケネディ国際空港 ( KJFK / JFK ) - アメリカ ニューヨーク州ニューヨーク
飛行場実況気象(Metar)
観測時間11/22 07:51 EST (11/22 12:51 UTC)
風向・風速静穏 0m/s
視程9650m
天気現象雨 もや
全天を覆う雲 雲底高度 180m
気温11.1℃
湿度100%
気圧1013hPa
METARKJFK 221251Z 00000KT 6SM RA BR OVC006 11/11 A2991 RMK AO2 SLP130 P0008 T01110111
過去の天気等 Google飛行場航空写真 Wunderground天気予報

過去48時間のMETAR

飛行場予報(TAF)
発表時間: 11/22 06:37 EST (11/22 11:37 UTC)
予報対象時間: 22日7時 EST ~ 23日13時 EST
風向・風速不定 3m/s
視程10km以上
天気現象弱い雨 もや
全天の8割程度の雲 雲底高度 910m
全天を覆う雲 雲底高度 1,520m
22日7時 EST ~ 22日11時 EST に一時的に
視程4,830m
天気現象弱い雨 もや
全天の8割程度の雲 雲底高度 460m
22日11時 EST から
風向・風速北西 6m/s
視程10km以上
全天の4割程度の雲 雲底高度 760m
全天の8割程度の雲 雲底高度 2,130m
22日13時 EST から
風向・風速北西 9m/s 瞬間風速 14m/s
視程10km以上
少しの雲 雲底高度 2,130m
全天の4割程度の雲 雲底高度 7,620m
22日23時 EST から
風向・風速北西 7m/s
視程10km以上
なし
23日2時 EST から
風向・風速北西 4m/s
視程10km以上
なし
KJFK 221137Z 2212/2318 VRB05KT 6SM -RA BR BKN030 OVC050
TEMPO 2212/2216 3SM -RA BR BKN015
FM221600 31011KT P6SM SCT025 BKN070
FM221800 32018G27KT P6SM FEW070 SCT250
FM230400 32014KT P6SM SKC
FM230700 32008KT P6SM SKC